BNE weather

Brisbane International Airport
Brisbane, Queensland, Australia

Public forecast

Using degrees Celsius for public forecast. Weather courtesy of forecast.io.

METAR (pilot weather report)

Retrieved 2017/10/24 06:30 UTC (0 seconds ago):

YBBN 240630Z 04011KT 9999 FEW035 22/13 Q1018 NOSIG

TAF (pilot weather forecast)

Retrieved 2017/10/24 06:00 UTC (28 minutes ago):

TAF YBBN 240518Z 2406/2512 05012KT 9999 FEW040 FM241000 01005KT CAVOK FM241400 32005KT 9999 FEW020 FM242300 36010KT CAVOK FM250200 02015KT CAVOK FM250800 36012KT CAVOK